Terminal Aerodrome Forecast
Issued by NWS Buffalo, NY

Home | Current Version | Previous Version | Text Only | Print | Product List | Glossary On
Versions: 1 2 3 4 5 6 7 8 9 10 11 12 13 14 15 16 17 18 19 20 21 22 23 24 25 26 27 28 29 30
000
FTUS41 KBUF 300540
TAFART
TAF
KART 300540Z 3006/0106 VRB03KT P6SM FEW250
     FM301000 13004KT P6SM BKN120
     FM301400 13006KT P6SM VCSH BKN090
     FM301700 15007KT 6SM -SHRA VCTS OVC060CB
     FM302000 15007KT 6SM -SHRA VCTS OVC025CB
     FM010100 16004KT P6SM -SHRA OVC050=

USA.gov is the U.S. government's official web portal to all federal, state and local government web resources and services.